createdAt,value
2019-01-10T00:00:18.250Z,2.60
2019-01-10T00:02:47.034Z,3.63
2019-01-10T00:05:16.098Z,2.83
2019-01-10T00:07:44.535Z,2.97
2019-01-10T00:10:15.833Z,2.77
2019-01-10T00:12:44.418Z,2.20
2019-01-10T00:15:17.875Z,2.60
2019-01-10T00:17:46.435Z,2.70
2019-01-10T00:20:17.758Z,2.87
2019-01-10T00:22:46.435Z,3.00
2019-01-10T00:25:16.796Z,2.57
2019-01-10T00:27:45.407Z,3.57
2019-01-10T00:30:21.195Z,3.03
2019-01-10T00:32:49.655Z,3.43
2019-01-10T00:35:18.354Z,3.00
2019-01-10T00:37:47.057Z,2.30
2019-01-10T00:40:18.335Z,2.80
2019-01-10T00:42:49.730Z,3.17
2019-01-10T00:45:17.864Z,2.60
2019-01-10T00:47:46.681Z,4.07
2019-01-10T00:50:17.397Z,2.70
2019-01-10T00:52:46.686Z,2.47
2019-01-10T00:55:15.378Z,3.20
2019-01-10T00:57:43.841Z,2.97
2019-01-10T01:00:18.333Z,2.93
2019-01-10T01:02:46.778Z,2.87
2019-01-10T01:05:15.955Z,2.47
2019-01-10T01:07:44.675Z,2.20
2019-01-10T01:10:21.533Z,2.53
2019-01-10T01:12:58.018Z,2.53
2019-01-10T01:15:20.471Z,2.87
2019-01-10T01:17:48.923Z,2.70
2019-01-10T01:20:19.408Z,2.53
2019-01-10T01:22:47.930Z,2.10
2019-01-10T01:25:16.552Z,2.90
2019-01-10T01:27:45.035Z,2.40
2019-01-10T01:30:16.639Z,3.47
2019-01-10T01:32:45.406Z,2.00
2019-01-10T01:35:14.878Z,2.80
2019-01-10T01:37:43.511Z,2.57
2019-01-10T01:40:15.112Z,2.00
2019-01-10T01:42:44.012Z,2.90
2019-01-10T01:45:14.944Z,3.70
2019-01-10T01:47:43.326Z,2.43
2019-01-10T01:50:15.247Z,2.63
2019-01-10T01:52:43.741Z,2.77
2019-01-10T01:55:12.253Z,2.27
2019-01-10T01:57:40.679Z,2.37
2019-01-10T02:00:13.434Z,2.40
2019-01-10T02:02:42.140Z,3.47
2019-01-10T02:05:10.709Z,3.10
2019-01-10T02:07:39.426Z,2.50
2019-01-10T02:10:13.421Z,2.20
2019-01-10T02:12:41.834Z,2.50
2019-01-10T02:15:10.466Z,2.90
2019-01-10T02:17:39.103Z,2.33
2019-01-10T02:20:09.749Z,2.57
2019-01-10T02:22:38.666Z,2.40
2019-01-10T02:25:09.849Z,2.37
2019-01-10T02:27:38.589Z,2.20
2019-01-10T02:30:10.310Z,2.60
2019-01-10T02:32:38.944Z,3.00
2019-01-10T02:35:08.552Z,2.60
2019-01-10T02:37:37.191Z,2.60
2019-01-10T02:40:08.127Z,3.07
2019-01-10T02:42:36.847Z,2.93
2019-01-10T02:45:08.370Z,2.63
2019-01-10T02:47:36.761Z,2.70
2019-01-10T02:50:14.085Z,2.73
2019-01-10T02:52:42.722Z,2.70
2019-01-10T02:55:11.589Z,2.80
2019-01-10T02:57:40.609Z,2.63
2019-01-10T03:00:17.999Z,2.50
2019-01-10T03:02:46.817Z,3.33
2019-01-10T03:05:15.444Z,3.87
2019-01-10T03:07:44.060Z,2.80
2019-01-10T03:10:15.951Z,2.80
2019-01-10T03:12:44.340Z,3.20
2019-01-10T03:15:12.871Z,2.77
2019-01-10T03:17:41.543Z,3.10
2019-01-10T03:20:13.234Z,2.30
2019-01-10T03:22:41.629Z,3.40
2019-01-10T03:25:10.188Z,2.73
2019-01-10T03:27:38.883Z,3.23
2019-01-10T03:30:10.606Z,3.00
2019-01-10T03:32:39.067Z,3.27
2019-01-10T03:35:08.986Z,3.43
2019-01-10T03:37:37.442Z,3.33
2019-01-10T03:40:09.522Z,3.00
2019-01-10T03:42:42.427Z,2.60
2019-01-10T03:45:13.382Z,3.20
2019-01-10T03:47:41.797Z,3.20
2019-01-10T03:50:12.215Z,3.00
2019-01-10T03:52:40.927Z,3.30
2019-01-10T03:55:09.467Z,2.80
2019-01-10T03:57:37.871Z,3.63
2019-01-10T04:00:12.204Z,3.63
2019-01-10T04:02:40.836Z,3.40
2019-01-10T04:05:09.213Z,2.97
2019-01-10T04:07:37.642Z,3.73
2019-01-10T04:10:07.796Z,2.80
2019-01-10T04:12:36.177Z,3.00
2019-01-10T04:15:06.058Z,3.10
2019-01-10T04:17:34.880Z,3.20
2019-01-10T04:20:04.339Z,3.70
2019-01-10T04:22:33.669Z,3.20
2019-01-10T04:25:02.156Z,3.90
2019-01-10T04:27:30.773Z,3.30
2019-01-10T04:29:59.191Z,3.10
2019-01-10T04:32:27.629Z,3.40
2019-01-10T04:34:56.244Z,3.67
2019-01-10T04:37:24.910Z,2.93
2019-01-10T04:39:53.291Z,2.67
2019-01-10T04:42:21.908Z,3.47
2019-01-10T04:44:50.390Z,3.30
2019-01-10T04:47:18.770Z,3.30
2019-01-10T04:49:47.154Z,3.97
2019-01-10T04:52:15.805Z,3.20
2019-01-10T04:54:44.203Z,3.00
2019-01-10T04:57:12.614Z,3.00
2019-01-10T04:59:41.281Z,2.83
2019-01-10T05:02:18.326Z,3.00
2019-01-10T05:04:39.780Z,3.43
2019-01-10T05:07:08.260Z,3.87
2019-01-10T05:09:36.650Z,2.97
2019-01-10T05:12:05.278Z,3.30
2019-01-10T05:14:34.011Z,3.60
2019-01-10T05:17:02.633Z,3.50
2019-01-10T05:19:31.267Z,3.00
2019-01-10T05:21:59.966Z,3.33
2019-01-10T05:24:28.416Z,3.37
2019-01-10T05:26:56.806Z,3.53
2019-01-10T05:29:25.206Z,3.40
2019-01-10T05:31:53.602Z,3.67
2019-01-10T05:34:21.989Z,2.60
2019-01-10T05:36:51.125Z,2.80
2019-01-10T05:39:19.533Z,3.43
2019-01-10T05:41:48.164Z,3.00
2019-01-10T05:44:26.122Z,3.30
2019-01-10T05:46:48.737Z,2.80
2019-01-10T05:49:16.847Z,3.40
2019-01-10T05:51:45.274Z,3.13
2019-01-10T05:54:13.682Z,3.03
2019-01-10T05:56:42.064Z,3.23
2019-01-10T05:59:10.541Z,3.10
2019-01-10T06:01:38.977Z,3.63
2019-01-10T06:04:07.418Z,4.00
2019-01-10T06:06:37.418Z,5.40
2019-01-10T06:09:08.871Z,3.13
2019-01-10T06:11:37.483Z,3.20
2019-01-10T06:14:05.978Z,3.27
2019-01-10T06:16:34.360Z,3.37
2019-01-10T06:19:02.757Z,3.60
2019-01-10T06:21:31.427Z,3.10
2019-01-10T06:24:00.147Z,3.47
2019-01-10T06:26:28.913Z,3.63
2019-01-10T06:28:57.631Z,3.00
2019-01-10T06:31:26.032Z,4.13
2019-01-10T06:33:54.647Z,3.30
2019-01-10T06:36:23.215Z,2.80
2019-01-10T06:38:51.629Z,3.37
2019-01-10T06:41:20.020Z,3.17
2019-01-10T06:43:48.463Z,2.43
2019-01-10T06:46:16.865Z,2.80
2019-01-10T06:48:45.502Z,3.60
2019-01-10T06:51:14.169Z,3.57
2019-01-10T06:53:42.577Z,3.17
2019-01-10T06:56:10.976Z,3.47
2019-01-10T06:58:39.403Z,3.50
2019-01-10T07:01:07.810Z,2.73
2019-01-10T07:03:36.533Z,3.00
2019-01-10T07:06:05.098Z,2.93
2019-01-10T07:08:33.487Z,3.43
2019-01-10T07:11:01.890Z,3.40
2019-01-10T07:13:30.563Z,3.00
2019-01-10T07:15:59.217Z,3.40
2019-01-10T07:18:27.849Z,3.10
2019-01-10T07:20:56.289Z,3.60
2019-01-10T07:23:24.934Z,3.50
2019-01-10T07:25:55.172Z,3.33
2019-01-10T07:28:23.773Z,3.80
2019-01-10T07:30:53.399Z,3.00
2019-01-10T07:33:21.803Z,3.63
2019-01-10T07:35:54.929Z,3.30
2019-01-10T07:38:23.559Z,3.30
2019-01-10T07:40:52.182Z,3.07
2019-01-10T07:43:21.761Z,3.47
2019-01-10T07:45:50.412Z,3.43
2019-01-10T07:48:18.808Z,4.07
2019-01-10T07:50:47.213Z,4.13
2019-01-10T07:53:16.140Z,3.30
2019-01-10T07:55:44.553Z,3.03
2019-01-10T07:58:13.001Z,4.40
2019-01-10T08:00:41.685Z,4.03
2019-01-10T08:03:10.089Z,4.50
2019-01-10T08:05:38.493Z,4.20
2019-01-10T08:08:07.497Z,3.53
2019-01-10T08:10:36.651Z,4.00
2019-01-10T08:13:06.265Z,3.70
2019-01-10T08:15:34.678Z,3.70
2019-01-10T08:18:03.197Z,3.80
2019-01-10T08:20:31.667Z,3.80
2019-01-10T08:23:00.069Z,3.60
2019-01-10T08:25:29.335Z,5.10
2019-01-10T08:27:57.949Z,4.30
2019-01-10T08:30:26.695Z,3.97
2019-01-10T08:32:55.417Z,4.77
2019-01-10T08:35:24.081Z,4.40
2019-01-10T08:37:52.718Z,4.40
2019-01-10T08:40:21.104Z,5.07
2019-01-10T08:42:50.046Z,4.27
2019-01-10T08:45:21.951Z,4.70
2019-01-10T08:47:48.552Z,4.93
2019-01-10T08:50:19.623Z,4.40
2019-01-10T08:52:48.042Z,4.80
2019-01-10T08:55:16.742Z,4.27
2019-01-10T08:57:45.171Z,4.37
2019-01-10T09:00:15.878Z,5.73
2019-01-10T09:02:44.756Z,4.83
2019-01-10T09:05:13.482Z,4.10
2019-01-10T09:07:42.332Z,3.60
2019-01-10T09:10:19.380Z,3.40
2019-01-10T09:12:48.114Z,4.90
2019-01-10T09:15:23.345Z,3.60
2019-01-10T09:17:46.974Z,4.50
2019-01-10T09:20:15.502Z,4.30
2019-01-10T09:22:43.973Z,3.87
2019-01-10T09:25:12.476Z,4.17
2019-01-10T09:27:40.892Z,4.97
2019-01-10T09:30:15.465Z,4.00
2019-01-10T09:32:44.442Z,4.03
2019-01-10T09:35:12.988Z,4.30
2019-01-10T09:37:41.460Z,3.80
2019-01-10T09:40:12.511Z,3.83
2019-01-10T09:42:41.266Z,3.57
2019-01-10T09:45:12.296Z,4.10
2019-01-10T09:47:40.743Z,4.93
2019-01-10T09:50:14.872Z,5.20
2019-01-10T09:52:43.579Z,3.70
2019-01-10T09:55:12.472Z,4.70
2019-01-10T09:57:40.879Z,4.57
2019-01-10T10:00:13.546Z,4.33
2019-01-10T10:02:41.992Z,4.50
2019-01-10T10:05:10.604Z,4.93
2019-01-10T10:07:39.226Z,4.57
2019-01-10T10:10:13.934Z,4.53
2019-01-10T10:12:43.258Z,4.43
2019-01-10T10:15:12.633Z,4.63
2019-01-10T10:17:41.284Z,4.47
2019-01-10T10:20:18.288Z,4.67
2019-01-10T10:22:46.916Z,4.57
2019-01-10T10:25:15.630Z,5.40
2019-01-10T10:27:44.281Z,3.73
2019-01-10T10:30:15.646Z,4.97
2019-01-10T10:32:44.043Z,5.00
2019-01-10T10:35:13.103Z,3.97
2019-01-10T10:37:41.500Z,4.40
2019-01-10T10:40:19.905Z,4.50
2019-01-10T10:42:49.182Z,4.17
2019-01-10T10:45:18.693Z,4.17
2019-01-10T10:47:47.675Z,4.57
2019-01-10T10:50:22.088Z,4.27
2019-01-10T10:52:52.105Z,4.27
2019-01-10T10:55:20.701Z,4.00
2019-01-10T10:57:49.314Z,4.50
2019-01-10T11:00:23.149Z,4.80
2019-01-10T11:02:51.695Z,4.73
2019-01-10T11:05:20.393Z,3.83
2019-01-10T11:07:48.946Z,4.57
2019-01-10T11:10:19.326Z,4.87
2019-01-10T11:12:48.545Z,4.63
2019-01-10T11:15:17.214Z,3.93
2019-01-10T11:17:46.092Z,4.50
2019-01-10T11:20:19.029Z,3.90
2019-01-10T11:22:47.877Z,4.10
2019-01-10T11:25:18.532Z,4.80
2019-01-10T11:27:47.098Z,4.80
2019-01-10T11:30:20.016Z,4.50
2019-01-10T11:32:48.475Z,4.37
2019-01-10T11:35:17.437Z,3.60
2019-01-10T11:37:46.208Z,4.03
2019-01-10T11:40:19.458Z,4.03
2019-01-10T11:42:48.330Z,3.80
2019-01-10T11:45:19.815Z,4.33
2019-01-10T11:47:48.457Z,3.63
2019-01-10T11:50:17.086Z,3.70
2019-01-10T11:52:45.819Z,3.70
2019-01-10T11:55:14.586Z,3.60
2019-01-10T11:57:43.449Z,4.27
2019-01-10T12:00:21.246Z,4.27
2019-01-10T12:02:49.629Z,3.83
2019-01-10T12:05:18.323Z,3.80
2019-01-10T12:07:46.760Z,4.10
2019-01-10T12:10:15.431Z,4.10
2019-01-10T12:12:43.872Z,4.43
2019-01-10T12:15:13.289Z,3.97
2019-01-10T12:17:41.672Z,4.83
2019-01-10T12:20:15.787Z,4.57
2019-01-10T12:22:44.596Z,5.00
2019-01-10T12:25:14.835Z,4.70
2019-01-10T12:27:43.379Z,5.20
2019-01-10T12:30:22.843Z,5.27
2019-01-10T12:32:51.231Z,4.97
2019-01-10T12:35:20.116Z,5.33
2019-01-10T12:37:48.773Z,5.40
2019-01-10T12:40:17.877Z,5.47
2019-01-10T12:42:46.516Z,4.77
2019-01-10T12:45:17.022Z,5.67
2019-01-10T12:47:45.496Z,6.17
2019-01-10T12:50:25.233Z,4.40
2019-01-10T12:52:53.675Z,4.93
2019-01-10T12:55:22.102Z,4.70
2019-01-10T12:57:50.629Z,5.57
2019-01-10T13:00:23.957Z,4.93
2019-01-10T13:02:53.963Z,5.00
2019-01-10T13:05:22.788Z,4.73
2019-01-10T13:07:51.562Z,4.40
2019-01-10T13:10:20.337Z,4.83
2019-01-10T13:12:49.271Z,4.80
2019-01-10T13:15:22.939Z,5.00
2019-01-10T13:17:51.333Z,4.50
2019-01-10T13:20:20.077Z,4.37
2019-01-10T13:22:48.553Z,4.47
2019-01-10T13:25:18.483Z,4.83
2019-01-10T13:27:47.256Z,4.40
2019-01-10T13:30:17.690Z,4.33
2019-01-10T13:32:46.369Z,4.30
2019-01-10T13:35:16.063Z,4.60
2019-01-10T13:37:44.765Z,4.33
2019-01-10T13:40:15.764Z,5.13
2019-01-10T13:42:44.827Z,4.73
2019-01-10T13:45:15.279Z,4.83
2019-01-10T13:47:45.553Z,3.60
2019-01-10T13:50:19.994Z,4.20
2019-01-10T13:52:48.613Z,5.47
2019-01-10T13:55:18.763Z,4.57
2019-01-10T13:57:47.277Z,4.37
2019-01-10T14:00:24.727Z,3.87
2019-01-10T14:02:53.340Z,4.43
2019-01-10T14:05:22.448Z,5.73
2019-01-10T14:07:51.020Z,4.00
2019-01-10T14:10:21.030Z,4.40
2019-01-10T14:12:49.669Z,4.17
2019-01-10T14:15:22.012Z,4.40
2019-01-10T14:17:50.757Z,5.70
2019-01-10T14:20:19.515Z,4.90
2019-01-10T14:22:48.280Z,4.83
2019-01-10T14:25:16.780Z,4.20
2019-01-10T14:27:45.232Z,3.90
2019-01-10T14:30:22.040Z,3.70
2019-01-10T14:32:50.449Z,3.80
2019-01-10T14:35:19.714Z,2.83
2019-01-10T14:37:48.864Z,3.97
2019-01-10T14:40:17.486Z,3.73
2019-01-10T14:42:46.130Z,3.57
2019-01-10T14:45:18.641Z,4.00
2019-01-10T14:47:47.447Z,3.50
2019-01-10T14:50:20.944Z,3.63
2019-01-10T14:52:49.389Z,4.03
2019-01-10T14:55:17.929Z,4.80
2019-01-10T14:57:46.724Z,3.70
2019-01-10T15:00:24.890Z,4.10
2019-01-10T15:02:53.586Z,3.90
2019-01-10T15:05:22.119Z,3.17
2019-01-10T15:07:51.717Z,3.73
2019-01-10T15:10:20.285Z,3.73
2019-01-10T15:12:48.941Z,3.93
2019-01-10T15:15:19.861Z,3.57
2019-01-10T15:17:48.405Z,3.70
2019-01-10T15:20:19.791Z,3.13
2019-01-10T15:22:48.480Z,3.50
2019-01-10T15:25:17.125Z,2.80
2019-01-10T15:27:45.513Z,3.30
2019-01-10T15:30:22.085Z,3.60
2019-01-10T15:32:50.567Z,3.20
2019-01-10T15:35:19.322Z,3.60
2019-01-10T15:37:48.063Z,2.97
2019-01-10T15:40:19.385Z,2.87
2019-01-10T15:42:48.050Z,3.80
2019-01-10T15:45:16.705Z,4.10
2019-01-10T15:47:46.087Z,3.10
2019-01-10T15:50:17.457Z,3.30
2019-01-10T15:52:46.122Z,3.60
2019-01-10T15:55:17.095Z,3.53
2019-01-10T15:57:45.773Z,4.53
2019-01-10T16:00:24.513Z,5.73
2019-01-10T16:02:53.190Z,4.07
2019-01-10T16:05:21.888Z,3.30
2019-01-10T16:07:50.389Z,3.10
2019-01-10T16:10:20.021Z,3.73
2019-01-10T16:12:49.694Z,3.77
2019-01-10T16:15:20.645Z,3.50
2019-01-10T16:17:49.218Z,4.37
2019-01-10T16:20:17.928Z,3.83
2019-01-10T16:22:46.484Z,3.70
2019-01-10T16:25:16.729Z,3.30
2019-01-10T16:27:45.220Z,3.27
2019-01-10T16:30:16.537Z,3.70
2019-01-10T16:32:45.217Z,3.73
2019-01-10T16:35:13.940Z,3.63
2019-01-10T16:37:42.386Z,4.20
2019-01-10T16:40:13.260Z,3.50
2019-01-10T16:42:41.943Z,3.13
2019-01-10T16:45:13.749Z,3.20
2019-01-10T16:47:42.397Z,3.37
2019-01-10T16:50:13.592Z,3.17
2019-01-10T16:52:42.385Z,3.50
2019-01-10T16:55:12.405Z,3.70
2019-01-10T16:57:41.394Z,3.47
2019-01-10T17:00:16.199Z,3.90
2019-01-10T17:02:45.443Z,3.70
2019-01-10T17:05:14.160Z,4.20
2019-01-10T17:07:42.581Z,3.30
2019-01-10T17:10:12.070Z,3.80
2019-01-10T17:12:40.693Z,3.10
2019-01-10T17:15:11.670Z,4.77
2019-01-10T17:17:40.078Z,4.50
2019-01-10T17:20:11.578Z,4.63
2019-01-10T17:22:40.029Z,4.30
2019-01-10T17:25:09.070Z,4.80
2019-01-10T17:27:37.729Z,5.27
2019-01-10T17:30:14.925Z,4.43
2019-01-10T17:32:43.311Z,4.77
2019-01-10T17:35:15.014Z,4.07
2019-01-10T17:37:43.865Z,4.80
2019-01-10T17:40:15.661Z,5.17
2019-01-10T17:42:44.493Z,4.63
2019-01-10T17:45:18.655Z,10.57
2019-01-10T17:47:47.061Z,6.37
2019-01-10T17:50:17.600Z,6.47
2019-01-10T17:52:46.739Z,6.60
2019-01-10T17:55:15.206Z,5.83
2019-01-10T17:57:43.614Z,6.17
2019-01-10T18:00:20.433Z,4.80
2019-01-10T18:02:48.914Z,5.00
2019-01-10T18:05:17.961Z,6.20
2019-01-10T18:07:46.678Z,5.00
2019-01-10T18:10:22.043Z,4.73
2019-01-10T18:12:50.753Z,5.30
2019-01-10T18:15:21.470Z,5.90
2019-01-10T18:17:50.878Z,5.40
2019-01-10T18:20:22.696Z,6.03
2019-01-10T18:22:51.452Z,5.10
2019-01-10T18:25:20.205Z,6.27
2019-01-10T18:27:48.657Z,6.30
2019-01-10T18:30:19.601Z,5.20
2019-01-10T18:32:48.515Z,5.97
2019-01-10T18:35:17.751Z,5.90
2019-01-10T18:37:47.664Z,5.83
2019-01-10T18:40:17.605Z,5.50
2019-01-10T18:42:46.368Z,5.90
2019-01-10T18:45:17.312Z,5.00
2019-01-10T18:47:45.797Z,5.63
2019-01-10T18:50:17.174Z,5.53
2019-01-10T18:52:45.946Z,6.63
2019-01-10T18:55:14.392Z,5.60
2019-01-10T18:57:43.317Z,6.00
2019-01-10T19:00:23.387Z,6.60
2019-01-10T19:02:52.177Z,6.50
2019-01-10T19:05:20.678Z,5.80
2019-01-10T19:07:49.078Z,6.27
2019-01-10T19:10:21.978Z,5.47
2019-01-10T19:12:50.540Z,6.27
2019-01-10T19:15:19.713Z,5.40
2019-01-10T19:17:48.240Z,5.73
2019-01-10T19:20:22.456Z,6.20
2019-01-10T19:22:51.337Z,6.20
2019-01-10T19:25:20.408Z,6.30
2019-01-10T19:27:48.840Z,7.07
2019-01-10T19:30:22.743Z,7.63
2019-01-10T19:32:51.540Z,7.10
2019-01-10T19:35:20.261Z,6.00
2019-01-10T19:37:49.099Z,7.90
2019-01-10T19:40:19.925Z,6.80
2019-01-10T19:42:48.398Z,7.37
2019-01-10T19:45:19.069Z,7.80
2019-01-10T19:47:47.763Z,7.90
2019-01-10T19:50:18.939Z,7.60
2019-01-10T19:52:47.905Z,7.63
2019-01-10T19:55:18.242Z,8.10
2019-01-10T19:57:47.216Z,6.73
2019-01-10T20:00:24.630Z,8.50
2019-01-10T20:02:53.114Z,8.00
2019-01-10T20:05:22.812Z,8.70
2019-01-10T20:07:51.509Z,8.37
2019-01-10T20:10:20.059Z,7.20
2019-01-10T20:12:48.789Z,7.40
2019-01-10T20:15:17.513Z,7.37
2019-01-10T20:17:46.334Z,7.37
2019-01-10T20:20:23.996Z,7.63
2019-01-10T20:22:52.748Z,7.37
2019-01-10T20:25:21.259Z,8.13
2019-01-10T20:27:49.700Z,7.20
2019-01-10T20:30:18.891Z,8.23
2019-01-10T20:32:47.512Z,7.37
2019-01-10T20:35:16.313Z,7.07
2019-01-10T20:37:44.752Z,7.30
2019-01-10T20:40:18.248Z,6.40
2019-01-10T20:42:46.797Z,6.93
2019-01-10T20:45:15.609Z,6.97
2019-01-10T20:47:44.319Z,6.07
2019-01-10T20:50:15.038Z,6.27
2019-01-10T20:52:43.501Z,6.47
2019-01-10T20:55:14.142Z,5.33
2019-01-10T20:57:43.045Z,5.80
2019-01-10T21:00:14.954Z,6.33
2019-01-10T21:02:43.893Z,6.30
2019-01-10T21:05:12.399Z,6.67
2019-01-10T21:07:40.865Z,6.63
2019-01-10T21:10:14.976Z,6.00
2019-01-10T21:12:43.551Z,5.73
2019-01-10T21:15:20.382Z,5.77
2019-01-10T21:17:49.838Z,6.70
2019-01-10T21:20:18.538Z,6.20
2019-01-10T21:22:47.292Z,6.40
2019-01-10T21:25:15.913Z,6.40
2019-01-10T21:27:44.547Z,5.90
2019-01-10T21:30:18.414Z,6.20
2019-01-10T21:32:47.702Z,6.20
2019-01-10T21:35:16.246Z,6.60
2019-01-10T21:37:44.647Z,6.97
2019-01-10T21:40:18.291Z,7.10
2019-01-10T21:42:46.824Z,6.70
2019-01-10T21:45:18.188Z,7.07
2019-01-10T21:47:47.005Z,7.80
2019-01-10T21:50:22.002Z,7.57
2019-01-10T21:52:50.484Z,7.20
2019-01-10T21:55:18.963Z,6.50
2019-01-10T21:57:47.437Z,6.60
2019-01-10T22:00:27.889Z,6.10
2019-01-10T22:02:56.780Z,6.40
2019-01-10T22:05:25.706Z,6.80
2019-01-10T22:07:54.297Z,6.60
2019-01-10T22:10:22.684Z,5.93
2019-01-10T22:12:51.313Z,5.60
2019-01-10T22:15:19.869Z,7.03
2019-01-10T22:17:48.260Z,7.90
2019-01-10T22:20:19.825Z,6.80
2019-01-10T22:22:48.538Z,6.37
2019-01-10T22:25:17.035Z,7.27
2019-01-10T22:27:45.691Z,7.30
2019-01-10T22:30:17.364Z,6.60
2019-01-10T22:32:45.917Z,7.87
2019-01-10T22:35:17.029Z,7.80
2019-01-10T22:37:45.526Z,5.57
2019-01-10T22:40:16.586Z,6.37
2019-01-10T22:42:44.991Z,6.87
2019-01-10T22:45:14.588Z,6.07
2019-01-10T22:47:43.181Z,6.63
2019-01-10T22:50:14.748Z,8.10
2019-01-10T22:52:43.245Z,8.53
2019-01-10T22:55:14.988Z,8.00
2019-01-10T22:57:43.850Z,7.50
2019-01-10T23:00:18.635Z,7.17
2019-01-10T23:02:47.301Z,7.20
2019-01-10T23:05:15.749Z,6.90
2019-01-10T23:07:44.192Z,6.70
2019-01-10T23:10:13.066Z,7.30
2019-01-10T23:12:41.533Z,6.60
2019-01-10T23:15:14.729Z,6.13
2019-01-10T23:17:45.011Z,7.03
2019-01-10T23:20:13.498Z,6.37
2019-01-10T23:22:41.925Z,6.53
2019-01-10T23:25:10.584Z,6.70
2019-01-10T23:27:43.885Z,6.70
2019-01-10T23:30:12.710Z,6.10
2019-01-10T23:32:41.121Z,6.30
2019-01-10T23:35:09.747Z,5.70
2019-01-10T23:37:39.203Z,6.70
2019-01-10T23:40:09.633Z,6.20
2019-01-10T23:42:38.184Z,6.33
2019-01-10T23:45:08.259Z,6.80
2019-01-10T23:47:36.666Z,7.77
2019-01-10T23:50:07.074Z,7.10
2019-01-10T23:52:35.885Z,8.23
2019-01-10T23:55:06.091Z,7.93
2019-01-10T23:57:34.598Z,6.77
